sensor_id;sensor_type;location;lat;lon;timestamp;P1;durP1;ratioP1;P2;durP2;ratioP2
16272;SDS011;8244;50.044;9.006;2022-11-15T00:03:13;9.13;;;4.35;;
16272;SDS011;8244;50.044;9.006;2022-11-15T00:08:15;9.07;;;4.45;;
16272;SDS011;8244;50.044;9.006;2022-11-15T00:13:18;9.50;;;4.70;;
16272;SDS011;8244;50.044;9.006;2022-11-15T00:18:20;8.93;;;4.30;;
16272;SDS011;8244;50.044;9.006;2022-11-15T00:23:22;11.77;;;4.93;;
16272;SDS011;8244;50.044;9.006;2022-11-15T00:28:25;9.68;;;3.78;;
16272;SDS011;8244;50.044;9.006;2022-11-15T00:33:27;7.78;;;4.20;;
16272;SDS011;8244;50.044;9.006;2022-11-15T00:38:30;9.00;;;4.30;;
16272;SDS011;8244;50.044;9.006;2022-11-15T00:43:34;8.65;;;4.72;;
16272;SDS011;8244;50.044;9.006;2022-11-15T00:48:35;7.90;;;4.53;;
16272;SDS011;8244;50.044;9.006;2022-11-15T00:53:37;7.50;;;4.63;;
16272;SDS011;8244;50.044;9.006;2022-11-15T00:58:40;10.90;;;5.20;;
16272;SDS011;8244;50.044;9.006;2022-11-15T01:03:42;9.07;;;5.18;;
16272;SDS011;8244;50.044;9.006;2022-11-15T01:08:43;8.63;;;4.80;;
16272;SDS011;8244;50.044;9.006;2022-11-15T01:13:46;8.10;;;4.15;;
16272;SDS011;8244;50.044;9.006;2022-11-15T01:18:48;9.75;;;4.30;;
16272;SDS011;8244;50.044;9.006;2022-11-15T01:23:52;9.65;;;4.68;;
16272;SDS011;8244;50.044;9.006;2022-11-15T01:28:56;10.15;;;4.97;;
16272;SDS011;8244;50.044;9.006;2022-11-15T01:33:58;9.57;;;4.60;;
16272;SDS011;8244;50.044;9.006;2022-11-15T01:38:59;8.50;;;4.72;;
16272;SDS011;8244;50.044;9.006;2022-11-15T01:49:37;10.98;;;4.75;;
16272;SDS011;8244;50.044;9.006;2022-11-15T01:54:40;7.80;;;4.38;;
16272;SDS011;8244;50.044;9.006;2022-11-15T01:59:43;7.93;;;4.22;;
16272;SDS011;8244;50.044;9.006;2022-11-15T02:04:47;8.10;;;4.43;;
16272;SDS011;8244;50.044;9.006;2022-11-15T02:09:48;8.60;;;4.20;;
16272;SDS011;8244;50.044;9.006;2022-11-15T02:14:53;11.43;;;4.90;;
16272;SDS011;8244;50.044;9.006;2022-11-15T02:20:04;9.80;;;4.57;;
16272;SDS011;8244;50.044;9.006;2022-11-15T02:25:29;9.43;;;4.72;;
16272;SDS011;8244;50.044;9.006;2022-11-15T02:30:42;9.85;;;5.53;;
16272;SDS011;8244;50.044;9.006;2022-11-15T02:35:48;9.70;;;5.07;;
16272;SDS011;8244;50.044;9.006;2022-11-15T02:40:59;9.27;;;4.57;;
16272;SDS011;8244;50.044;9.006;2022-11-15T02:46:08;9.75;;;4.15;;
16272;SDS011;8244;50.044;9.006;2022-11-15T02:51:14;7.50;;;4.22;;
16272;SDS011;8244;50.044;9.006;2022-11-15T02:56:17;7.28;;;4.00;;
16272;SDS011;8244;50.044;9.006;2022-11-15T03:01:23;8.52;;;4.10;;
16272;SDS011;8244;50.044;9.006;2022-11-15T03:06:36;7.78;;;3.90;;
16272;SDS011;8244;50.044;9.006;2022-11-15T03:11:44;12.05;;;4.30;;
16272;SDS011;8244;50.044;9.006;2022-11-15T03:16:51;8.55;;;4.68;;
16272;SDS011;8244;50.044;9.006;2022-11-15T03:22:00;7.10;;;4.03;;
16272;SDS011;8244;50.044;9.006;2022-11-15T03:27:05;8.18;;;3.92;;
16272;SDS011;8244;50.044;9.006;2022-11-15T03:32:12;8.18;;;3.63;;
16272;SDS011;8244;50.044;9.006;2022-11-15T03:37:17;7.13;;;3.80;;
16272;SDS011;8244;50.044;9.006;2022-11-15T03:42:24;7.60;;;4.07;;
16272;SDS011;8244;50.044;9.006;2022-11-15T03:47:33;7.82;;;3.72;;
16272;SDS011;8244;50.044;9.006;2022-11-15T03:52:37;8.93;;;4.32;;
16272;SDS011;8244;50.044;9.006;2022-11-15T03:57:41;6.25;;;3.97;;
16272;SDS011;8244;50.044;9.006;2022-11-15T04:02:44;9.52;;;4.25;;
16272;SDS011;8244;50.044;9.006;2022-11-15T04:07:46;7.72;;;3.92;;
16272;SDS011;8244;50.044;9.006;2022-11-15T04:12:47;8.02;;;4.18;;
16272;SDS011;8244;50.044;9.006;2022-11-15T04:17:51;8.82;;;4.55;;
16272;SDS011;8244;50.044;9.006;2022-11-15T04:22:54;9.05;;;5.03;;
16272;SDS011;8244;50.044;9.006;2022-11-15T04:28:14;7.90;;;4.72;;
16272;SDS011;8244;50.044;9.006;2022-11-15T04:33:17;10.00;;;5.13;;
16272;SDS011;8244;50.044;9.006;2022-11-15T04:38:19;8.82;;;4.40;;
16272;SDS011;8244;50.044;9.006;2022-11-15T04:43:21;9.00;;;4.32;;
16272;SDS011;8244;50.044;9.006;2022-11-15T04:48:24;10.35;;;5.30;;
16272;SDS011;8244;50.044;9.006;2022-11-15T04:53:27;9.85;;;4.70;;
16272;SDS011;8244;50.044;9.006;2022-11-15T04:58:28;9.30;;;4.35;;
16272;SDS011;8244;50.044;9.006;2022-11-15T05:03:31;8.05;;;4.00;;
16272;SDS011;8244;50.044;9.006;2022-11-15T05:08:50;8.32;;;4.80;;
16272;SDS011;8244;50.044;9.006;2022-11-15T05:13:52;8.52;;;4.50;;
16272;SDS011;8244;50.044;9.006;2022-11-15T05:18:56;10.35;;;4.80;;
16272;SDS011;8244;50.044;9.006;2022-11-15T05:23:58;8.68;;;4.60;;
16272;SDS011;8244;50.044;9.006;2022-11-15T05:28:59;7.90;;;4.45;;
16272;SDS011;8244;50.044;9.006;2022-11-15T05:34:02;10.65;;;4.75;;
16272;SDS011;8244;50.044;9.006;2022-11-15T05:39:06;7.47;;;4.15;;
16272;SDS011;8244;50.044;9.006;2022-11-15T05:44:09;8.45;;;4.40;;
16272;SDS011;8244;50.044;9.006;2022-11-15T05:49:14;10.70;;;4.88;;
16272;SDS011;8244;50.044;9.006;2022-11-15T05:54:21;6.47;;;4.20;;
16272;SDS011;8244;50.044;9.006;2022-11-15T05:59:24;9.35;;;4.00;;
16272;SDS011;8244;50.044;9.006;2022-11-15T06:04:28;10.75;;;4.60;;
16272;SDS011;8244;50.044;9.006;2022-11-15T06:09:30;11.10;;;4.68;;
16272;SDS011;8244;50.044;9.006;2022-11-15T06:14:31;7.63;;;4.22;;
16272;SDS011;8244;50.044;9.006;2022-11-15T06:19:34;8.18;;;4.68;;
16272;SDS011;8244;50.044;9.006;2022-11-15T06:24:36;9.23;;;4.78;;
16272;SDS011;8244;50.044;9.006;2022-11-15T06:29:37;11.52;;;5.03;;
16272;SDS011;8244;50.044;9.006;2022-11-15T06:34:40;9.82;;;5.10;;
16272;SDS011;8244;50.044;9.006;2022-11-15T06:39:42;8.95;;;5.25;;
16272;SDS011;8244;50.044;9.006;2022-11-15T06:44:44;11.43;;;4.50;;
16272;SDS011;8244;50.044;9.006;2022-11-15T06:49:47;7.75;;;4.55;;
16272;SDS011;8244;50.044;9.006;2022-11-15T06:54:48;11.30;;;5.00;;
16272;SDS011;8244;50.044;9.006;2022-11-15T06:59:50;9.82;;;5.18;;
16272;SDS011;8244;50.044;9.006;2022-11-15T07:04:53;13.55;;;5.60;;
16272;SDS011;8244;50.044;9.006;2022-11-15T07:09:55;9.93;;;4.65;;
16272;SDS011;8244;50.044;9.006;2022-11-15T07:14:56;12.05;;;5.35;;
16272;SDS011;8244;50.044;9.006;2022-11-15T07:19:59;12.73;;;5.00;;
16272;SDS011;8244;50.044;9.006;2022-11-15T07:25:01;11.85;;;5.40;;
16272;SDS011;8244;50.044;9.006;2022-11-15T07:30:04;13.98;;;5.00;;
16272;SDS011;8244;50.044;9.006;2022-11-15T07:35:08;10.32;;;5.28;;
16272;SDS011;8244;50.044;9.006;2022-11-15T07:40:10;9.25;;;5.05;;
16272;SDS011;8244;50.044;9.006;2022-11-15T07:45:12;10.18;;;4.32;;
16272;SDS011;8244;50.044;9.006;2022-11-15T07:50:15;7.30;;;4.13;;
16272;SDS011;8244;50.044;9.006;2022-11-15T07:55:17;8.43;;;4.20;;
16272;SDS011;8244;50.044;9.006;2022-11-15T08:00:20;9.48;;;3.95;;
16272;SDS011;8244;50.044;9.006;2022-11-15T08:05:23;6.43;;;3.45;;
16272;SDS011;8244;50.044;9.006;2022-11-15T08:10:25;7.95;;;3.60;;
16272;SDS011;8244;50.044;9.006;2022-11-15T08:15:27;8.68;;;3.53;;
16272;SDS011;8244;50.044;9.006;2022-11-15T08:20:31;7.35;;;3.60;;
16272;SDS011;8244;50.044;9.006;2022-11-15T08:25:34;7.60;;;3.88;;
16272;SDS011;8244;50.044;9.006;2022-11-15T08:30:37;6.22;;;3.47;;
16272;SDS011;8244;50.044;9.006;2022-11-15T08:35:43;7.30;;;3.67;;
16272;SDS011;8244;50.044;9.006;2022-11-15T08:40:45;8.77;;;4.18;;
16272;SDS011;8244;50.044;9.006;2022-11-15T08:45:46;8.95;;;4.07;;
16272;SDS011;8244;50.044;9.006;2022-11-15T08:50:51;7.90;;;4.10;;
16272;SDS011;8244;50.044;9.006;2022-11-15T08:55:55;10.95;;;4.45;;
16272;SDS011;8244;50.044;9.006;2022-11-15T09:00:56;7.97;;;4.57;;
16272;SDS011;8244;50.044;9.006;2022-11-15T09:06:00;10.70;;;4.25;;
16272;SDS011;8244;50.044;9.006;2022-11-15T09:11:02;9.43;;;4.15;;
16272;SDS011;8244;50.044;9.006;2022-11-15T09:16:05;10.27;;;3.95;;
16272;SDS011;8244;50.044;9.006;2022-11-15T09:21:08;6.72;;;3.60;;
16272;SDS011;8244;50.044;9.006;2022-11-15T09:26:10;6.95;;;3.92;;
16272;SDS011;8244;50.044;9.006;2022-11-15T09:31:12;7.05;;;3.88;;
16272;SDS011;8244;50.044;9.006;2022-11-15T09:36:15;10.65;;;3.80;;
16272;SDS011;8244;50.044;9.006;2022-11-15T09:41:22;6.95;;;3.58;;
16272;SDS011;8244;50.044;9.006;2022-11-15T09:46:32;7.25;;;3.65;;
16272;SDS011;8244;50.044;9.006;2022-11-15T09:51:41;8.02;;;3.90;;
16272;SDS011;8244;50.044;9.006;2022-11-15T09:56:47;7.72;;;4.10;;
16272;SDS011;8244;50.044;9.006;2022-11-15T10:01:51;6.78;;;4.00;;
16272;SDS011;8244;50.044;9.006;2022-11-15T10:07:01;7.88;;;3.80;;
16272;SDS011;8244;50.044;9.006;2022-11-15T10:12:06;8.13;;;3.50;;
16272;SDS011;8244;50.044;9.006;2022-11-15T10:17:13;7.72;;;3.47;;
16272;SDS011;8244;50.044;9.006;2022-11-15T10:22:28;7.22;;;3.47;;
16272;SDS011;8244;50.044;9.006;2022-11-15T10:27:32;12.88;;;3.80;;
16272;SDS011;8244;50.044;9.006;2022-11-15T10:32:34;7.95;;;3.60;;
16272;SDS011;8244;50.044;9.006;2022-11-15T10:37:38;7.90;;;3.20;;
16272;SDS011;8244;50.044;9.006;2022-11-15T10:42:40;5.20;;;2.88;;
16272;SDS011;8244;50.044;9.006;2022-11-15T10:47:41;9.65;;;3.45;;
16272;SDS011;8244;50.044;9.006;2022-11-15T10:52:45;5.60;;;3.45;;
16272;SDS011;8244;50.044;9.006;2022-11-15T10:57:49;15.15;;;8.05;;
16272;SDS011;8244;50.044;9.006;2022-11-15T11:02:56;8.25;;;4.85;;
16272;SDS011;8244;50.044;9.006;2022-11-15T11:08:03;8.18;;;3.60;;
16272;SDS011;8244;50.044;9.006;2022-11-15T11:13:21;6.78;;;3.47;;
16272;SDS011;8244;50.044;9.006;2022-11-15T11:18:25;9.98;;;4.95;;
16272;SDS011;8244;50.044;9.006;2022-11-15T11:23:38;13.93;;;5.05;;
16272;SDS011;8244;50.044;9.006;2022-11-15T11:28:47;12.15;;;5.03;;
16272;SDS011;8244;50.044;9.006;2022-11-15T11:33:56;7.95;;;4.25;;
16272;SDS011;8244;50.044;9.006;2022-11-15T11:39:10;12.60;;;4.32;;
16272;SDS011;8244;50.044;9.006;2022-11-15T11:44:24;9.10;;;4.20;;
16272;SDS011;8244;50.044;9.006;2022-11-15T11:49:34;7.30;;;3.97;;
16272;SDS011;8244;50.044;9.006;2022-11-15T11:54:46;8.45;;;3.97;;
16272;SDS011;8244;50.044;9.006;2022-11-15T11:59:55;7.75;;;3.25;;
16272;SDS011;8244;50.044;9.006;2022-11-15T12:05:03;6.70;;;3.22;;
16272;SDS011;8244;50.044;9.006;2022-11-15T12:10:16;5.32;;;2.88;;
16272;SDS011;8244;50.044;9.006;2022-11-15T12:15:23;7.28;;;2.97;;
16272;SDS011;8244;50.044;9.006;2022-11-15T12:20:29;5.78;;;3.15;;
16272;SDS011;8244;50.044;9.006;2022-11-15T12:25:40;5.97;;;3.08;;
16272;SDS011;8244;50.044;9.006;2022-11-15T12:30:48;3.85;;;2.60;;
16272;SDS011;8244;50.044;9.006;2022-11-15T12:35:57;5.57;;;3.00;;
16272;SDS011;8244;50.044;9.006;2022-11-15T12:41:14;4.55;;;2.40;;
16272;SDS011;8244;50.044;9.006;2022-11-15T12:46:22;6.90;;;3.00;;
16272;SDS011;8244;50.044;9.006;2022-11-15T12:57:26;3.63;;;2.03;;
16272;SDS011;8244;50.044;9.006;2022-11-15T13:02:36;4.85;;;2.83;;
16272;SDS011;8244;50.044;9.006;2022-11-15T13:07:55;6.63;;;2.70;;
16272;SDS011;8244;50.044;9.006;2022-11-15T13:13:00;4.85;;;2.58;;
16272;SDS011;8244;50.044;9.006;2022-11-15T13:23:34;3.33;;;2.10;;
16272;SDS011;8244;50.044;9.006;2022-11-15T13:28:38;3.40;;;1.98;;
16272;SDS011;8244;50.044;9.006;2022-11-15T13:33:44;4.95;;;2.20;;
16272;SDS011;8244;50.044;9.006;2022-11-15T13:38:54;3.30;;;1.80;;
16272;SDS011;8244;50.044;9.006;2022-11-15T13:43:59;4.72;;;2.35;;
16272;SDS011;8244;50.044;9.006;2022-11-15T13:49:02;2.97;;;1.90;;
16272;SDS011;8244;50.044;9.006;2022-11-15T13:54:08;3.70;;;2.00;;
16272;SDS011;8244;50.044;9.006;2022-11-15T13:59:20;5.60;;;2.10;;
16272;SDS011;8244;50.044;9.006;2022-11-15T14:04:27;5.05;;;2.80;;
16272;SDS011;8244;50.044;9.006;2022-11-15T14:09:35;4.45;;;3.00;;
16272;SDS011;8244;50.044;9.006;2022-11-15T14:14:44;8.70;;;3.55;;
16272;SDS011;8244;50.044;9.006;2022-11-15T14:19:46;5.20;;;2.90;;
16272;SDS011;8244;50.044;9.006;2022-11-15T14:30:13;6.65;;;2.97;;
16272;SDS011;8244;50.044;9.006;2022-11-15T14:35:16;7.72;;;3.10;;
16272;SDS011;8244;50.044;9.006;2022-11-15T14:40:21;6.95;;;3.22;;
16272;SDS011;8244;50.044;9.006;2022-11-15T14:45:27;7.50;;;3.95;;
16272;SDS011;8244;50.044;9.006;2022-11-15T14:50:29;4.65;;;3.30;;
16272;SDS011;8244;50.044;9.006;2022-11-15T14:55:33;6.57;;;3.40;;
16272;SDS011;8244;50.044;9.006;2022-11-15T15:00:38;6.07;;;3.33;;
16272;SDS011;8244;50.044;9.006;2022-11-15T15:05:41;5.35;;;3.22;;
16272;SDS011;8244;50.044;9.006;2022-11-15T15:10:44;5.10;;;3.03;;
16272;SDS011;8244;50.044;9.006;2022-11-15T15:15:48;6.63;;;3.20;;
16272;SDS011;8244;50.044;9.006;2022-11-15T15:20:54;9.10;;;3.75;;
16272;SDS011;8244;50.044;9.006;2022-11-15T15:25:59;7.30;;;3.30;;
16272;SDS011;8244;50.044;9.006;2022-11-15T15:31:02;7.93;;;3.90;;
16272;SDS011;8244;50.044;9.006;2022-11-15T15:36:04;5.97;;;3.40;;
16272;SDS011;8244;50.044;9.006;2022-11-15T15:41:08;5.95;;;3.35;;
16272;SDS011;8244;50.044;9.006;2022-11-15T15:46:13;5.07;;;2.80;;
16272;SDS011;8244;50.044;9.006;2022-11-15T15:51:16;10.43;;;4.13;;
16272;SDS011;8244;50.044;9.006;2022-11-15T15:56:18;6.60;;;3.58;;
16272;SDS011;8244;50.044;9.006;2022-11-15T16:01:21;8.05;;;3.88;;
16272;SDS011;8244;50.044;9.006;2022-11-15T16:06:32;7.45;;;3.65;;
16272;SDS011;8244;50.044;9.006;2022-11-15T16:11:38;9.13;;;3.95;;
16272;SDS011;8244;50.044;9.006;2022-11-15T16:16:41;6.93;;;3.65;;
16272;SDS011;8244;50.044;9.006;2022-11-15T16:21:43;6.38;;;4.13;;
16272;SDS011;8244;50.044;9.006;2022-11-15T16:26:44;16.48;;;6.90;;
16272;SDS011;8244;50.044;9.006;2022-11-15T16:31:48;19.08;;;8.25;;
16272;SDS011;8244;50.044;9.006;2022-11-15T16:36:50;10.23;;;5.72;;
16272;SDS011;8244;50.044;9.006;2022-11-15T16:41:53;8.95;;;4.80;;
16272;SDS011;8244;50.044;9.006;2022-11-15T16:46:56;14.25;;;6.70;;
16272;SDS011;8244;50.044;9.006;2022-11-15T16:51:58;28.45;;;11.90;;
16272;SDS011;8244;50.044;9.006;2022-11-15T16:56:59;26.95;;;12.43;;
16272;SDS011;8244;50.044;9.006;2022-11-15T17:02:02;11.50;;;6.00;;
16272;SDS011;8244;50.044;9.006;2022-11-15T17:07:04;7.88;;;5.25;;
16272;SDS011;8244;50.044;9.006;2022-11-15T17:12:06;12.63;;;6.70;;
16272;SDS011;8244;50.044;9.006;2022-11-15T17:17:12;11.68;;;5.57;;
16272;SDS011;8244;50.044;9.006;2022-11-15T17:22:13;11.02;;;6.78;;
16272;SDS011;8244;50.044;9.006;2022-11-15T17:27:15;8.95;;;5.20;;
16272;SDS011;8244;50.044;9.006;2022-11-15T17:32:19;9.70;;;4.93;;
16272;SDS011;8244;50.044;9.006;2022-11-15T17:37:20;9.20;;;4.60;;
16272;SDS011;8244;50.044;9.006;2022-11-15T17:42:22;12.35;;;4.10;;
16272;SDS011;8244;50.044;9.006;2022-11-15T17:47:25;8.23;;;4.45;;
16272;SDS011;8244;50.044;9.006;2022-11-15T17:52:27;16.42;;;10.00;;
16272;SDS011;8244;50.044;9.006;2022-11-15T17:57:28;14.20;;;8.77;;
16272;SDS011;8244;50.044;9.006;2022-11-15T18:02:31;14.10;;;8.35;;
16272;SDS011;8244;50.044;9.006;2022-11-15T18:07:33;8.45;;;5.05;;
16272;SDS011;8244;50.044;9.006;2022-11-15T18:12:35;8.95;;;6.00;;
16272;SDS011;8244;50.044;9.006;2022-11-15T18:17:38;10.75;;;6.63;;
16272;SDS011;8244;50.044;9.006;2022-11-15T18:22:39;10.98;;;6.68;;
16272;SDS011;8244;50.044;9.006;2022-11-15T18:27:41;10.20;;;6.82;;
16272;SDS011;8244;50.044;9.006;2022-11-15T18:32:44;9.85;;;6.25;;
16272;SDS011;8244;50.044;9.006;2022-11-15T18:37:46;10.70;;;6.10;;
16272;SDS011;8244;50.044;9.006;2022-11-15T18:42:47;11.35;;;5.90;;
16272;SDS011;8244;50.044;9.006;2022-11-15T18:47:50;13.93;;;6.50;;
16272;SDS011;8244;50.044;9.006;2022-11-15T18:52:52;9.32;;;5.35;;
16272;SDS011;8244;50.044;9.006;2022-11-15T18:57:54;10.63;;;5.80;;
16272;SDS011;8244;50.044;9.006;2022-11-15T19:02:58;12.07;;;7.00;;
16272;SDS011;8244;50.044;9.006;2022-11-15T19:07:59;13.88;;;6.57;;
16272;SDS011;8244;50.044;9.006;2022-11-15T19:13:01;9.35;;;5.72;;
16272;SDS011;8244;50.044;9.006;2022-11-15T19:18:04;8.70;;;4.90;;
16272;SDS011;8244;50.044;9.006;2022-11-15T19:23:06;8.95;;;4.53;;
16272;SDS011;8244;50.044;9.006;2022-11-15T19:28:08;9.02;;;5.20;;
16272;SDS011;8244;50.044;9.006;2022-11-15T19:33:12;8.40;;;4.20;;
16272;SDS011;8244;50.044;9.006;2022-11-15T19:38:13;8.18;;;4.43;;
16272;SDS011;8244;50.044;9.006;2022-11-15T19:43:15;8.07;;;4.63;;
16272;SDS011;8244;50.044;9.006;2022-11-15T19:48:18;12.05;;;4.95;;
16272;SDS011;8244;50.044;9.006;2022-11-15T19:53:20;9.25;;;4.55;;
16272;SDS011;8244;50.044;9.006;2022-11-15T19:58:23;9.15;;;5.05;;
16272;SDS011;8244;50.044;9.006;2022-11-15T20:03:28;9.70;;;4.85;;
16272;SDS011;8244;50.044;9.006;2022-11-15T20:08:30;7.57;;;4.70;;
16272;SDS011;8244;50.044;9.006;2022-11-15T20:13:32;10.07;;;5.10;;
16272;SDS011;8244;50.044;9.006;2022-11-15T20:18:35;7.85;;;4.70;;
16272;SDS011;8244;50.044;9.006;2022-11-15T20:23:37;10.75;;;4.97;;
16272;SDS011;8244;50.044;9.006;2022-11-15T20:28:39;10.15;;;5.15;;
16272;SDS011;8244;50.044;9.006;2022-11-15T20:33:42;11.15;;;5.30;;
16272;SDS011;8244;50.044;9.006;2022-11-15T20:38:44;11.02;;;4.93;;
16272;SDS011;8244;50.044;9.006;2022-11-15T20:43:46;11.80;;;5.13;;
16272;SDS011;8244;50.044;9.006;2022-11-15T20:48:49;11.50;;;5.93;;
16272;SDS011;8244;50.044;9.006;2022-11-15T20:53:51;10.07;;;6.57;;
16272;SDS011;8244;50.044;9.006;2022-11-15T20:58:52;12.60;;;5.85;;
16272;SDS011;8244;50.044;9.006;2022-11-15T21:03:56;11.02;;;5.10;;
16272;SDS011;8244;50.044;9.006;2022-11-15T21:08:58;8.50;;;4.72;;
16272;SDS011;8244;50.044;9.006;2022-11-15T21:14:18;6.82;;;4.32;;
16272;SDS011;8244;50.044;9.006;2022-11-15T21:19:21;10.05;;;4.78;;
16272;SDS011;8244;50.044;9.006;2022-11-15T21:24:24;10.23;;;5.25;;
16272;SDS011;8244;50.044;9.006;2022-11-15T21:29:26;7.85;;;4.50;;
16272;SDS011;8244;50.044;9.006;2022-11-15T21:34:29;10.43;;;4.47;;
16272;SDS011;8244;50.044;9.006;2022-11-15T21:39:30;9.20;;;5.22;;
16272;SDS011;8244;50.044;9.006;2022-11-15T21:44:32;7.85;;;4.70;;
16272;SDS011;8244;50.044;9.006;2022-11-15T21:49:35;7.35;;;4.55;;
16272;SDS011;8244;50.044;9.006;2022-11-15T21:54:37;7.28;;;4.25;;
16272;SDS011;8244;50.044;9.006;2022-11-15T21:59:40;9.65;;;4.30;;
16272;SDS011;8244;50.044;9.006;2022-11-15T22:04:56;8.68;;;4.95;;
16272;SDS011;8244;50.044;9.006;2022-11-15T22:09:58;10.32;;;5.43;;
16272;SDS011;8244;50.044;9.006;2022-11-15T22:15:00;9.55;;;4.60;;
16272;SDS011;8244;50.044;9.006;2022-11-15T22:20:03;10.23;;;5.15;;
16272;SDS011;8244;50.044;9.006;2022-11-15T22:25:06;7.65;;;4.20;;
16272;SDS011;8244;50.044;9.006;2022-11-15T22:30:09;9.43;;;4.63;;
16272;SDS011;8244;50.044;9.006;2022-11-15T22:35:13;10.88;;;4.60;;
16272;SDS011;8244;50.044;9.006;2022-11-15T22:40:15;8.05;;;4.40;;
16272;SDS011;8244;50.044;9.006;2022-11-15T22:45:17;8.95;;;4.80;;
16272;SDS011;8244;50.044;9.006;2022-11-15T22:50:20;8.98;;;4.40;;
16272;SDS011;8244;50.044;9.006;2022-11-15T22:55:23;10.02;;;4.47;;
16272;SDS011;8244;50.044;9.006;2022-11-15T23:00:24;8.10;;;4.65;;
16272;SDS011;8244;50.044;9.006;2022-11-15T23:05:28;7.88;;;4.43;;
16272;SDS011;8244;50.044;9.006;2022-11-15T23:10:29;9.15;;;4.45;;
16272;SDS011;8244;50.044;9.006;2022-11-15T23:15:49;6.65;;;4.30;;
16272;SDS011;8244;50.044;9.006;2022-11-15T23:21:12;8.00;;;4.55;;
16272;SDS011;8244;50.044;9.006;2022-11-15T23:26:15;7.68;;;3.95;;
16272;SDS011;8244;50.044;9.006;2022-11-15T23:31:17;8.18;;;3.90;;
16272;SDS011;8244;50.044;9.006;2022-11-15T23:36:37;6.68;;;4.10;;
16272;SDS011;8244;50.044;9.006;2022-11-15T23:41:40;8.93;;;4.32;;
16272;SDS011;8244;50.044;9.006;2022-11-15T23:46:43;10.75;;;4.50;;
16272;SDS011;8244;50.044;9.006;2022-11-15T23:51:46;9.98;;;4.90;;
16272;SDS011;8244;50.044;9.006;2022-11-15T23:56:48;9.68;;;4.47;;
